New York, New York
Traffic Map
Current Weather Conditions
New York, New York
Clear
Clear
28°
Feels Like: 30°
Wind Chill: 28° Ceiling: Unl
Heat Index: 30° Visibility: 10mi
Dew Point: 21° Wind: 7mph
Humidity: 67% Direction: ° ()
Pressure: 29.96in Gusts: 0mph
Raw Report DataKNYC 300551Z AUTO VRB06KT 10SM CLR 28/21 A2996 RMK AO2 SLP135 T02780211 10306 20278 51002
Traffic Incident Summary
Active as of:
Severity:
Category:
InformationThere was an issue retrieving the traffic information for this location. Please try a different location or try again shortly.
Advertisements
Track Severe Weather on mobile